Time;durP1;ratioP1;P1;durP2;ratioP2;P2;SDS_P1;SDS_P2;PMS_P1;PMS_P2;Temp;Humidity;BMP_temperature;BMP_pressure;BME280_temperature;BME280_humidity;BME280_pressure;Samples;Min_cycle;Max_cycle;Signal;HPM_P1;HPM_P2
2021/01/26 00:00:22;;;;;;;6.88;2.72;;;3.90;98.10;;;;;;5117059;27;20126;-40
2021/01/26 00:02:48;;;;;;;7.53;2.20;;;3.90;98.10;;;;;;5106197;27;20020;-40
2021/01/26 00:05:15;;;;;;;6.18;2.20;;;3.90;98.20;;;;;;5116833;27;20358;-40
2021/01/26 00:07:41;;;;;;;7.78;2.22;;;3.90;98.20;;;;;;5106004;27;20054;-40
2021/01/26 00:10:08;;;;;;;8.13;1.83;;;3.90;98.30;;;;;;5117274;27;20016;-40
2021/01/26 00:12:34;;;;;;;5.18;2.22;;;3.90;98.20;;;;;;5105437;28;20492;-41
2021/01/26 00:15:00;;;;;;;6.65;2.58;;;4.00;98.20;;;;;;5112957;27;20034;-40
2021/01/26 00:17:26;;;;;;;6.57;2.03;;;4.00;98.20;;;;;;5125565;27;20353;-40
2021/01/26 00:19:52;;;;;;;5.18;2.38;;;4.00;98.10;;;;;;5111191;27;20027;-39
2021/01/26 00:22:17;;;;;;;7.63;2.53;;;4.00;98.10;;;;;;5123761;27;20030;-40
2021/01/26 00:24:43;;;;;;;8.68;2.80;;;4.00;98.10;;;;;;5113453;27;20022;-39
2021/01/26 00:27:08;;;;;;;10.95;2.45;;;4.00;98.20;;;;;;5123860;27;20770;-38
2021/01/26 00:29:35;;;;;;;12.38;2.70;;;4.00;98.20;;;;;;5116193;27;20156;-37
2021/01/26 00:32:00;;;;;;;9.25;2.70;;;3.90;98.10;;;;;;5120670;27;20351;-39
2021/01/26 00:34:26;;;;;;;5.60;2.17;;;3.80;98.10;;;;;;5118763;27;20024;-40
2021/01/26 00:36:51;;;;;;;6.72;3.03;;;3.80;98.20;;;;;;5118557;27;20077;-39
2021/01/26 00:39:20;;;;;;;10.63;2.15;;;3.90;98.30;;;;;;5121367;27;20087;-39
2021/01/26 00:41:46;;;;;;;5.80;2.22;;;3.90;98.40;;;;;;5116165;27;20069;-40
2021/01/26 00:44:14;;;;;;;5.85;1.95;;;4.00;98.30;;;;;;5124165;27;20102;-38
2021/01/26 00:46:39;;;;;;;6.60;2.35;;;3.90;98.20;;;;;;5113151;27;20517;-40
2021/01/26 00:49:04;;;;;;;7.45;2.42;;;3.90;98.20;;;;;;5123526;27;20110;-39
2021/01/26 00:51:30;;;;;;;6.95;2.08;;;3.80;98.20;;;;;;5112769;28;20377;-39
2021/01/26 00:53:55;;;;;;;3.88;2.08;;;3.80;98.20;;;;;;5124541;27;20047;-40
2021/01/26 00:56:21;;;;;;;5.45;1.92;;;3.70;98.20;;;;;;5112395;28;20545;-40
2021/01/26 00:58:47;;;;;;;5.88;2.05;;;3.70;98.20;;;;;;5125326;27;20101;-38
2021/01/26 01:01:12;;;;;;;4.13;1.52;;;3.70;98.30;;;;;;5111719;28;20111;-40
2021/01/26 01:03:38;;;;;;;7.82;2.10;;;3.70;98.30;;;;;;5124393;28;20031;-40
2021/01/26 01:06:04;;;;;;;7.15;1.58;;;3.70;98.30;;;;;;5113454;28;20043;-41
2021/01/26 01:08:32;;;;;;;4.75;1.63;;;3.70;98.30;;;;;;5123116;28;20567;-40
2021/01/26 01:10:58;;;;;;;7.55;1.48;;;3.60;98.20;;;;;;5115971;28;20104;-40
2021/01/26 01:13:23;;;;;;;4.93;1.55;;;3.60;98.20;;;;;;5120895;28;20470;-41
2021/01/26 01:15:49;;;;;;;7.70;2.10;;;3.60;98.20;;;;;;5117823;28;20569;-41
2021/01/26 01:18:16;;;;;;;9.40;2.33;;;3.60;98.30;;;;;;5118420;28;20620;-40
2021/01/26 01:20:42;;;;;;;5.45;1.90;;;3.60;98.30;;;;;;5120498;28;20127;-40
2021/01/26 01:23:07;;;;;;;8.63;2.88;;;3.60;98.30;;;;;;5116011;28;20148;-40
2021/01/26 01:25:33;;;;;;;8.32;2.72;;;3.60;98.40;;;;;;5123101;28;20015;-40
2021/01/26 01:27:59;;;;;;;8.23;2.58;;;3.60;98.50;;;;;;5113418;28;20043;-40
2021/01/26 01:30:30;;;;;;;9.18;2.75;;;3.60;98.50;;;;;;5124443;27;20563;-40
2021/01/26 01:32:56;;;;;;;8.68;2.90;;;3.60;98.60;;;;;;5116809;27;20081;-40
2021/01/26 01:35:22;;;;;;;10.60;2.92;;;3.70;98.60;;;;;;5128335;27;20035;-40
2021/01/26 01:37:49;;;;;;;9.70;3.10;;;3.60;98.60;;;;;;5116054;27;20031;-40
2021/01/26 01:40:35;;;;;;;9.38;2.63;;;3.60;98.50;;;;;;5129221;27;20031;-43
2021/01/26 01:43:04;;;;;;;10.07;2.65;;;3.70;98.60;;;;;;5115800;27;20806;-39
2021/01/26 01:45:29;;;;;;;12.52;2.88;;;3.70;98.70;;;;;;5128527;27;20024;-40
2021/01/26 01:48:04;;;;;;;10.30;2.70;;;3.70;98.50;;;;;;5115657;27;20027;-37
2021/01/26 01:50:35;;;;;;;8.07;2.17;;;3.80;98.50;;;;;;5128419;27;20066;-40
2021/01/26 01:53:20;;;;;;;7.80;1.92;;;3.70;98.40;;;;;;5115659;27;20035;-39
2021/01/26 01:55:54;;;;;;;3.67;1.60;;;3.70;98.40;;;;;;5128137;27;20573;-40
2021/01/26 01:58:26;;;;;;;5.50;1.50;;;3.70;98.40;;;;;;5115284;27;20027;-40
2021/01/26 02:01:01;;;;;;;9.05;2.13;;;3.70;98.30;;;;;;5128208;27;20027;-39
2021/01/26 02:03:30;;;;;;;8.32;1.50;;;3.70;98.30;;;;;;5114370;27;20050;-40
2021/01/26 02:05:58;;;;;;;9.48;1.70;;;3.70;98.30;;;;;;5127153;27;20116;-40
2021/01/26 02:08:40;;;;;;;7.72;1.70;;;3.70;98.30;;;;;;5115179;27;20024;-39
2021/01/26 02:11:05;;;;;;;6.22;1.35;;;3.70;98.40;;;;;;5128292;27;20039;-40
2021/01/26 02:13:31;;;;;;;9.45;1.75;;;3.70;98.40;;;;;;5114965;27;20436;-39
2021/01/26 02:16:00;;;;;;;8.43;1.45;;;3.70;98.40;;;;;;5127650;27;20418;-40
2021/01/26 02:19:04;;;;;;;6.35;1.05;;;3.80;98.40;;;;;;5116667;27;20103;-40
2021/01/26 02:21:51;;;;;;;3.63;1.17;;;3.80;98.30;;;;;;5107282;28;20123;-40
2021/01/26 02:24:44;;;;;;;7.10;1.35;;;3.80;98.10;;;;;;5120065;27;20050;-39
2021/01/26 02:27:28;;;;;;;;;;;3.80;98.10;;;;;;5108332;27;20108;-40
2021/01/26 02:30:24;;;;;;;4.20;1.13;;;3.70;98.00;;;;;;5117943;27;19907;-37
2021/01/26 02:33:38;;;;;;;6.72;1.70;;;3.60;98.00;;;;;;5107884;27;20077;-40
2021/01/26 02:36:23;;;;;;;;;;;3.60;98.20;;;;;;5104473;27;20043;-37
2021/01/26 02:39:13;;;;;;;5.65;1.40;;;3.60;98.20;;;;;;5118526;27;19919;-40
2021/01/26 02:41:50;;;;;;;8.38;1.98;;;3.60;98.20;;;;;;5124695;27;20042;-40
2021/01/26 02:44:34;;;;;;;6.10;1.45;;;3.60;98.50;;;;;;5116956;27;20076;-39
2021/01/26 02:47:18;;;;;;;5.75;1.35;;;3.60;98.20;;;;;;5106333;28;20043;-39
2021/01/26 02:49:56;;;;;;;4.50;1.58;;;3.70;98.20;;;;;;5119016;27;20023;-39
2021/01/26 02:52:41;;;;;;;6.95;1.60;;;3.70;98.20;;;;;;5106882;28;20031;-41
2021/01/26 02:55:28;;;;;;;4.57;1.35;;;3.80;98.20;;;;;;5119258;27;20501;-40
2021/01/26 02:58:17;;;;;;;5.80;1.42;;;3.80;98.20;;;;;;5106429;28;20443;-40
2021/01/26 03:00:43;;;;;;;5.38;1.58;;;3.80;98.10;;;;;;5116633;27;20034;-41
2021/01/26 03:03:45;;;;;;;6.25;1.30;;;3.80;98.10;;;;;;5106531;28;20032;-40
2021/01/26 03:06:13;;;;;;;5.50;1.20;;;3.80;98.00;;;;;;5126066;27;20042;-41
2021/01/26 03:09:03;;;;;;;3.72;1.20;;;3.80;98.10;;;;;;5124320;27;20123;-40
2021/01/26 03:11:44;;;;;;;6.53;1.40;;;3.80;98.10;;;;;;5115127;27;20054;-40
2021/01/26 03:14:30;;;;;;;4.63;1.10;;;3.80;98.10;;;;;;5124502;27;20049;-40
2021/01/26 03:17:11;;;;;;;3.83;0.95;;;3.90;98.10;;;;;;5117165;27;20027;-39
2021/01/26 03:19:39;;;;;;;4.45;0.98;;;3.90;98.00;;;;;;5123522;27;20072;-39
2021/01/26 03:22:09;;;;;;;3.63;1.15;;;4.00;98.00;;;;;;5117111;27;20023;-39
2021/01/26 03:24:39;;;;;;;11.82;1.80;;;4.00;98.00;;;;;;5124590;27;20390;-40
2021/01/26 03:27:09;;;;;;;4.63;1.20;;;4.10;98.00;;;;;;5116007;27;20019;-38
2021/01/26 03:29:41;;;;;;;4.57;1.20;;;4.10;97.90;;;;;;5123808;27;20378;-40
2021/01/26 03:32:11;;;;;;;5.07;1.35;;;4.10;97.80;;;;;;5114676;27;20023;-39
2021/01/26 03:34:37;;;;;;;6.13;1.10;;;4.10;97.70;;;;;;5125099;27;20438;-40
2021/01/26 03:37:03;;;;;;;4.88;1.15;;;4.10;97.60;;;;;;5114797;27;20023;-40
2021/01/26 03:39:29;;;;;;;6.95;1.13;;;4.00;97.50;;;;;;5126004;27;20094;-40
2021/01/26 03:41:54;;;;;;;4.40;0.93;;;3.90;97.60;;;;;;5112804;27;20138;-39
2021/01/26 03:44:20;;;;;;;6.38;1.10;;;3.80;97.60;;;;;;5126016;27;20054;-39
2021/01/26 03:46:46;;;;;;;4.50;1.17;;;3.70;97.70;;;;;;5112512;27;20482;-41
2021/01/26 03:49:17;;;;;;;3.95;0.90;;;3.60;97.70;;;;;;5125966;27;20466;-41
2021/01/26 03:52:04;;;;;;;5.95;0.88;;;3.50;97.80;;;;;;5113387;27;20034;-37
2021/01/26 03:54:54;;;;;;;4.05;1.10;;;3.50;97.90;;;;;;5104381;28;20040;-40
2021/01/26 03:57:39;;;;;;;5.30;1.00;;;3.50;98.00;;;;;;5117486;27;20592;-39
2021/01/26 04:00:09;;;;;;;4.57;1.08;;;3.60;98.10;;;;;;5105332;28;20031;-40
2021/01/26 04:03:02;;;;;;;4.55;1.00;;;3.70;98.10;;;;;;5117675;27;20015;-40
2021/01/26 04:05:39;;;;;;;8.18;1.17;;;3.80;98.10;;;;;;5106511;27;20459;-39
2021/01/26 04:08:14;;;;;;;3.25;0.90;;;3.90;98.00;;;;;;5116772;27;20474;-40
2021/01/26 04:10:49;;;;;;;3.28;0.93;;;3.90;97.90;;;;;;5105334;27;20724;-41
2021/01/26 04:13:20;;;;;;;5.93;1.00;;;3.90;97.80;;;;;;5116239;27;20065;-42
2021/01/26 04:15:51;;;;;;;7.35;1.00;;;4.00;97.80;;;;;;5105112;27;20428;-39
2021/01/26 04:18:22;;;;;;;10.45;1.08;;;4.00;97.80;;;;;;5116208;27;20031;-41
2021/01/26 04:20:49;;;;;;;3.33;1.33;;;4.00;97.80;;;;;;5104729;28;20042;-41
2021/01/26 04:23:16;;;;;;;7.10;1.13;;;4.10;97.80;;;;;;5117801;27;20023;-41
2021/01/26 04:25:44;;;;;;;4.32;1.10;;;4.10;97.70;;;;;;5103825;28;20011;-40
2021/01/26 04:28:13;;;;;;;7.13;1.20;;;4.20;97.70;;;;;;5117480;27;20767;-39
2021/01/26 04:30:40;;;;;;;7.18;2.05;;;4.20;97.70;;;;;;5103868;28;20036;-40
2021/01/26 04:33:14;;;;;;;6.03;1.05;;;4.20;97.60;;;;;;5116355;27;20015;-40
2021/01/26 04:35:40;;;;;;;3.85;1.13;;;4.30;97.60;;;;;;5104627;28;20059;-38
2021/01/26 04:38:07;;;;;;;3.67;1.27;;;4.30;97.60;;;;;;5115556;27;20034;-40
2021/01/26 04:40:34;;;;;;;5.55;0.90;;;4.30;97.60;;;;;;5106045;27;20061;-41
2021/01/26 04:43:21;;;;;;;6.18;1.00;;;4.30;97.60;;;;;;5113038;27;20425;-39
2021/01/26 04:46:12;;;;;;;4.00;0.90;;;4.40;97.60;;;;;;5104930;27;20027;-40
2021/01/26 04:48:50;;;;;;;4.05;0.95;;;4.40;97.50;;;;;;5116464;27;20047;-39
2021/01/26 04:51:27;;;;;;;3.95;1.27;;;4.40;97.50;;;;;;5105242;28;20037;-39
2021/01/26 04:54:23;;;;;;;6.47;1.40;;;4.40;97.50;;;;;;5116979;27;20115;-38
2021/01/26 04:57:23;;;;;;;6.97;1.30;;;4.30;97.50;;;;;;5103997;28;20038;-40
2021/01/26 05:00:07;;;;;;;6.95;1.63;;;4.30;97.50;;;;;;5070099;27;20043;-40
2021/01/26 05:03:02;;;;;;;7.85;1.65;;;4.30;97.50;;;;;;5122901;28;20042;-40
2021/01/26 05:05:34;;;;;;;7.15;1.33;;;4.40;97.50;;;;;;5114948;27;20047;-39
2021/01/26 05:08:06;;;;;;;8.48;1.70;;;4.40;97.50;;;;;;5123262;28;20111;-42
2021/01/26 05:10:41;;;;;;;6.55;1.65;;;4.40;97.50;;;;;;5114123;28;20023;-41
2021/01/26 05:13:15;;;;;;;7.45;1.50;;;4.40;97.50;;;;;;5123420;28;20042;-40
2021/01/26 05:15:46;;;;;;;5.80;1.60;;;4.40;97.40;;;;;;5113559;28;20031;-40
2021/01/26 05:18:27;;;;;;;9.57;1.65;;;4.40;97.40;;;;;;5123697;28;20057;-39
2021/01/26 05:21:03;;;;;;;5.35;1.35;;;4.50;97.40;;;;;;5114305;28;20057;-40
2021/01/26 05:23:38;;;;;;;8.95;1.85;;;4.50;97.40;;;;;;5123435;28;20027;-39
2021/01/26 05:26:14;;;;;;;4.38;1.10;;;4.50;97.40;;;;;;5114366;28;20050;-37
2021/01/26 05:28:45;;;;;;;5.40;1.40;;;4.50;97.40;;;;;;5122430;28;20047;-38
2021/01/26 05:31:15;;;;;;;8.38;1.38;;;4.50;97.40;;;;;;5113799;28;20019;-38
2021/01/26 05:33:45;;;;;;;5.05;1.50;;;4.50;97.40;;;;;;5122656;28;20085;-39
2021/01/26 05:36:11;;;;;;;3.70;1.13;;;4.50;97.40;;;;;;5113033;28;20054;-40
2021/01/26 05:38:37;;;;;;;5.82;1.58;;;4.50;97.40;;;;;;5123379;28;20381;-40
2021/01/26 05:41:07;;;;;;;5.32;1.17;;;4.50;97.40;;;;;;5113173;28;20026;-40
2021/01/26 05:43:34;;;;;;;4.90;1.23;;;4.50;97.40;;;;;;5123832;28;20099;-41
2021/01/26 05:46:02;;;;;;;3.63;0.93;;;4.50;97.40;;;;;;5116284;28;20544;-40
2021/01/26 05:48:44;;;;;;;11.25;2.20;;;4.50;97.40;;;;;;5103750;28;20035;-40
2021/01/26 05:51:21;;;;;;;9.00;2.03;;;4.50;97.40;;;;;;5111951;28;20845;-39
2021/01/26 05:54:02;;;;;;;6.18;1.70;;;4.50;97.40;;;;;;5124306;28;20050;-40
2021/01/26 05:56:28;;;;;;;4.68;1.38;;;4.50;97.50;;;;;;5111889;28;20118;-41
2021/01/26 05:58:54;;;;;;;7.03;2.00;;;4.50;97.40;;;;;;5123797;28;20051;-40
2021/01/26 06:01:26;;;;;;;6.50;1.33;;;4.50;97.40;;;;;;5111164;28;20107;-42
2021/01/26 06:04:08;;;;;;;9.20;2.08;;;4.50;97.40;;;;;;5123496;28;20059;-41
2021/01/26 06:06:54;;;;;;;9.52;1.45;;;4.50;97.40;;;;;;5111219;28;20044;-41
2021/01/26 06:09:30;;;;;;;7.15;1.13;;;4.50;97.40;;;;;;5124548;28;20039;-40
2021/01/26 06:12:12;;;;;;;9.05;1.58;;;4.50;97.40;;;;;;5111395;28;20034;-40
2021/01/26 06:14:40;;;;;;;11.00;2.75;;;4.50;97.50;;;;;;5123575;28;20058;-39
2021/01/26 06:17:21;;;;;;;3.78;1.10;;;4.50;97.50;;;;;;5112635;27;20037;-40
2021/01/26 06:20:09;;;;;;;7.10;1.80;;;4.50;97.50;;;;;;5127578;27;20034;-39
2021/01/26 06:22:35;;;;;;;6.28;1.45;;;4.50;97.50;;;;;;5116183;27;20111;-38
2021/01/26 06:25:06;;;;;;;8.27;1.70;;;4.50;97.60;;;;;;5127214;27;20031;-41
2021/01/26 06:27:59;;;;;;;7.32;1.40;;;4.40;97.60;;;;;;5115764;27;20379;-41
2021/01/26 06:30:36;;;;;;;5.10;1.25;;;4.40;97.60;;;;;;5126644;27;20489;-42
2021/01/26 06:33:45;;;;;;;8.27;1.50;;;4.40;97.60;;;;;;5116317;27;20046;-40
2021/01/26 06:36:35;;;;;;;7.03;1.70;;;4.40;97.60;;;;;;5124408;27;20092;-41
2021/01/26 06:39:25;;;;;;;7.35;1.48;;;4.30;97.60;;;;;;5121593;27;20031;-40
2021/01/26 06:42:08;;;;;;;6.88;1.10;;;4.30;97.60;;;;;;5120341;27;20030;-42
2021/01/26 06:44:58;;;;;;;6.97;1.10;;;4.30;97.70;;;;;;5124916;27;20473;-41
2021/01/26 06:47:54;;;;;;;7.47;1.30;;;4.30;97.70;;;;;;5117067;27;20534;-40
2021/01/26 06:50:31;;;;;;;5.75;1.92;;;4.40;97.80;;;;;;5107809;28;20040;-38
2021/01/26 06:53:22;;;;;;;5.65;1.42;;;4.40;97.80;;;;;;5119318;27;20194;-41
2021/01/26 06:55:57;;;;;;;5.97;1.33;;;4.40;97.80;;;;;;5106647;28;20028;-40
2021/01/26 06:58:48;;;;;;;4.93;1.13;;;4.40;97.80;;;;;;5120549;27;20019;-41
2021/01/26 07:01:42;;;;;;;4.70;1.20;;;4.40;97.80;;;;;;5126562;27;20019;-41
2021/01/26 07:04:26;;;;;;;3.55;1.20;;;4.40;97.90;;;;;;5120058;27;20043;-41
2021/01/26 07:07:10;;;;;;;3.78;1.08;;;4.40;97.90;;;;;;5111452;27;20059;-40
2021/01/26 07:09:53;;;;;;;5.97;1.42;;;4.40;97.90;;;;;;5126182;27;20418;-41
2021/01/26 07:12:40;;;;;;;5.95;1.55;;;4.40;97.90;;;;;;5123962;27;20110;-40
2021/01/26 07:15:17;;;;;;;6.05;1.83;;;4.40;98.00;;;;;;5115785;27;20047;-41
2021/01/26 07:18:11;;;;;;;3.65;1.10;;;4.50;98.00;;;;;;5114958;27;20023;-40
2021/01/26 07:20:56;;;;;;;7.88;1.27;;;4.40;97.90;;;;;;5115413;27;20027;-42
2021/01/26 07:23:52;;;;;;;6.45;1.23;;;4.40;97.90;;;;;;5114378;27;20081;-42
2021/01/26 07:26:43;;;;;;;4.90;0.90;;;4.40;97.90;;;;;;5115327;27;20035;-40
2021/01/26 07:29:15;;;;;;;6.47;1.42;;;4.30;98.00;;;;;;5119642;27;20019;-40
2021/01/26 07:31:47;;;;;;;7.03;1.27;;;4.40;98.00;;;;;;5125943;27;20485;-42
2021/01/26 07:34:42;;;;;;;4.82;1.17;;;4.40;98.10;;;;;;5124796;27;20973;-41
2021/01/26 07:37:22;;;;;;;3.38;1.15;;;4.40;98.10;;;;;;5125299;27;20030;-41
2021/01/26 07:40:03;;;;;;;3.50;1.02;;;4.40;98.10;;;;;;5117122;27;20026;-39
2021/01/26 07:42:37;;;;;;;3.13;1.30;;;4.40;98.00;;;;;;5124965;27;20027;-41
2021/01/26 07:45:14;;;;;;;3.53;1.20;;;4.40;98.20;;;;;;5116969;27;20023;-41
2021/01/26 07:47:52;;;;;;;3.72;0.93;;;4.30;98.10;;;;;;5114918;27;20055;-41
2021/01/26 07:50:21;;;;;;;5.07;1.10;;;4.30;98.10;;;;;;5114538;27;20023;-38
2021/01/26 07:52:50;;;;;;;5.25;1.30;;;4.40;98.20;;;;;;5126076;27;20027;-40
2021/01/26 07:55:26;;;;;;;2.28;1.10;;;4.40;98.30;;;;;;5113125;27;20125;-39
2021/01/26 07:58:11;;;;;;;3.50;0.95;;;4.40;98.30;;;;;;5125975;27;20555;-41
2021/01/26 08:00:42;;;;;;;1.75;0.80;;;4.50;98.20;;;;;;5112431;27;20038;-41
2021/01/26 08:03:09;;;;;;;3.25;1.00;;;4.50;98.10;;;;;;5109713;27;20058;-41
2021/01/26 08:05:46;;;;;;;3.47;1.00;;;4.50;98.00;;;;;;5121135;27;20160;-41
2021/01/26 08:08:22;;;;;;;3.63;1.10;;;4.40;98.00;;;;;;5106014;28;20016;-40
2021/01/26 08:11:03;;;;;;;4.40;1.00;;;4.40;98.10;;;;;;5112549;27;20019;-41
2021/01/26 08:13:29;;;;;;;1.20;0.82;;;4.30;98.10;;;;;;5108595;27;20117;-42
2021/01/26 08:15:54;;;;;;;2.55;0.80;;;4.20;98.10;;;;;;5111083;27;20043;-41
2021/01/26 08:18:25;;;;;;;1.38;0.90;;;4.20;98.10;;;;;;5123523;27;20023;-41
2021/01/26 08:20:52;;;;;;;3.30;0.90;;;4.10;98.10;;;;;;5111489;27;20035;-40
2021/01/26 08:23:43;;;;;;;1.95;0.90;;;4.10;98.20;;;;;;5105070;27;20557;-41
2021/01/26 08:26:17;;;;;;;2.17;0.90;;;4.10;98.30;;;;;;5114763;27;20116;-41
2021/01/26 08:28:46;;;;;;;3.88;1.13;;;4.10;98.30;;;;;;5112895;27;20454;-41
2021/01/26 08:31:32;;;;;;;4.47;0.85;;;4.10;98.30;;;;;;5117752;27;20148;-41
2021/01/26 08:34:20;;;;;;;5.85;2.42;;;4.00;98.30;;;;;;5121054;27;20032;-42
2021/01/26 08:36:47;;;;;;;1.90;1.10;;;4.10;98.40;;;;;;5116070;27;20027;-41
2021/01/26 08:39:18;;;;;;;1.58;0.88;;;4.10;98.30;;;;;;5124981;27;20031;-37
2021/01/26 08:41:51;;;;;;;4.50;1.10;;;4.10;98.30;;;;;;5111175;27;20024;-40
2021/01/26 08:44:20;;;;;;;3.42;1.15;;;4.20;98.40;;;;;;5120870;27;20868;-38
2021/01/26 08:46:47;;;;;;;3.65;1.20;;;4.20;98.40;;;;;;5111314;27;20055;-40
2021/01/26 08:49:33;;;;;;;2.90;1.00;;;4.30;98.40;;;;;;5125103;27;20027;-40
2021/01/26 08:52:20;;;;;;;3.75;1.48;;;4.40;98.40;;;;;;5116784;27;20107;-41
2021/01/26 08:54:48;;;;;;;6.20;1.10;;;4.50;98.40;;;;;;5101558;28;20124;-42
2021/01/26 08:57:27;;;;;;;3.70;1.13;;;4.50;98.30;;;;;;5115412;27;20527;-40
2021/01/26 08:59:54;;;;;;;5.35;1.73;;;4.60;98.30;;;;;;5101964;28;20088;-39
2021/01/26 09:02:33;;;;;;;3.85;1.23;;;4.70;98.30;;;;;;5114881;27;20027;-40
2021/01/26 09:05:01;;;;;;;4.43;1.40;;;4.80;98.20;;;;;;5102882;28;20497;-41
2021/01/26 09:07:50;;;;;;;3.15;1.35;;;4.90;98.20;;;;;;5115964;28;20035;-38
2021/01/26 09:10:39;;;;;;;4.35;1.65;;;5.00;98.10;;;;;;5105136;28;20350;-40
2021/01/26 09:13:25;;;;;;;3.35;1.23;;;5.10;97.90;;;;;;5113420;28;20138;-40
2021/01/26 09:16:15;;;;;;;1.65;0.93;;;5.10;97.90;;;;;;5124152;28;20051;-40
2021/01/26 09:18:41;;;;;;;6.43;2.22;;;5.20;97.90;;;;;;5115667;28;20092;-41
2021/01/26 09:21:12;;;;;;;4.65;1.10;;;5.20;97.70;;;;;;5105989;28;20106;-40
2021/01/26 09:23:40;;;;;;;3.15;1.15;;;5.20;97.70;;;;;;5113555;28;20122;-43
2021/01/26 09:26:17;;;;;;;3.25;1.10;;;5.10;97.80;;;;;;5105153;28;20015;-41
2021/01/26 09:28:46;;;;;;;3.10;1.10;;;5.20;97.90;;;;;;5116543;28;20065;-41
2021/01/26 09:31:15;;;;;;;3.55;1.33;;;5.20;97.90;;;;;;5105599;28;20016;-40
2021/01/26 09:33:41;;;;;;;3.83;1.10;;;5.30;97.90;;;;;;5111952;28;20474;-39
2021/01/26 09:36:10;;;;;;;3.45;1.10;;;5.40;97.90;;;;;;5125977;28;20471;-40
2021/01/26 09:38:40;;;;;;;3.33;1.23;;;5.50;97.80;;;;;;5111919;28;20062;-41
2021/01/26 09:41:07;;;;;;;3.72;1.48;;;5.50;97.70;;;;;;5125180;28;20102;-39
2021/01/26 09:43:39;;;;;;;3.65;1.25;;;5.60;97.70;;;;;;5111717;28;20031;-40
2021/01/26 09:46:11;;;;;;;5.28;1.38;;;5.60;97.60;;;;;;5125296;28;20104;-40
2021/01/26 09:48:44;;;;;;;4.82;1.23;;;5.70;97.60;;;;;;5111951;28;20397;-39
2021/01/26 09:51:23;;;;;;;3.83;1.45;;;5.70;97.50;;;;;;5104771;28;20080;-39
2021/01/26 09:54:03;;;;;;;3.72;1.27;;;5.70;97.30;;;;;;5119793;27;20587;-40
2021/01/26 09:56:30;;;;;;;5.40;1.40;;;5.60;97.30;;;;;;5107925;28;20015;-40
2021/01/26 09:58:57;;;;;;;7.68;1.40;;;5.50;97.30;;;;;;5119735;27;20088;-40
2021/01/26 10:01:24;;;;;;;2.50;1.40;;;5.50;97.40;;;;;;5109502;27;20444;-38
2021/01/26 10:03:55;;;;;;;4.03;1.17;;;5.40;97.40;;;;;;5116886;27;20030;-39
2021/01/26 10:06:21;;;;;;;2.90;1.33;;;5.40;97.50;;;;;;5110662;27;20178;-40
2021/01/26 10:08:47;;;;;;;5.95;1.42;;;5.30;97.50;;;;;;5115282;27;20109;-42
2021/01/26 10:11:16;;;;;;;3.88;1.38;;;5.30;97.60;;;;;;5113658;27;20028;-40
2021/01/26 10:13:42;;;;;;;5.03;1.58;;;5.30;97.60;;;;;;5112817;27;20068;-40
2021/01/26 10:16:39;;;;;;;5.13;1.48;;;5.30;97.60;;;;;;5127716;27;20027;-39
2021/01/26 10:19:11;;;;;;;7.68;1.70;;;5.30;97.70;;;;;;5124217;27;20055;-41
2021/01/26 10:21:37;;;;;;;6.47;2.38;;;5.30;97.50;;;;;;5112330;27;20347;-39
2021/01/26 10:24:11;;;;;;;4.70;1.85;;;5.40;97.60;;;;;;5112531;27;20098;-40
2021/01/26 10:26:42;;;;;;;6.32;1.70;;;5.40;97.50;;;;;;5114312;27;20030;-41
2021/01/26 10:29:10;;;;;;;4.40;1.52;;;5.50;97.50;;;;;;5117029;27;20023;-40
2021/01/26 10:31:48;;;;;;;7.40;1.88;;;5.50;97.40;;;;;;5114989;27;20038;-41
2021/01/26 10:34:21;;;;;;;8.20;1.58;;;5.50;97.40;;;;;;5112295;27;20023;-41
2021/01/26 10:36:46;;;;;;;;;;;5.50;97.30;;;;;;5115543;27;20059;-39
2021/01/26 10:39:29;;;;;;;4.38;1.48;;;5.60;97.20;;;;;;5110450;27;20350;-42
2021/01/26 10:42:17;;;;;;;8.13;1.38;;;5.60;96.90;;;;;;5116023;27;20027;-41
2021/01/26 10:44:52;;;;;;;5.72;1.15;;;5.70;97.00;;;;;;5111872;27;20019;-41
2021/01/26 10:47:33;;;;;;;4.38;1.15;;;5.80;96.80;;;;;;5113738;27;20082;-41
2021/01/26 10:50:01;;;;;;;4.72;1.40;;;5.80;96.90;;;;;;5113237;27;20042;-40
2021/01/26 10:52:42;;;;;;;6.30;1.40;;;5.90;96.30;;;;;;5113573;27;20046;-41
2021/01/26 10:55:10;;;;;;;5.18;1.10;;;5.90;96.30;;;;;;5113131;27;20031;-39
2021/01/26 10:57:38;;;;;;;5.60;1.10;;;6.00;96.40;;;;;;5113771;27;20050;-40
2021/01/26 11:00:05;;;;;;;4.90;1.10;;;6.00;96.40;;;;;;5110562;27;20042;-40
2021/01/26 11:02:31;;;;;;;5.15;1.20;;;6.00;96.40;;;;;;5115204;27;20427;-39
2021/01/26 11:04:56;;;;;;;4.47;1.38;;;6.10;96.50;;;;;;5107277;27;20493;-37
2021/01/26 11:07:22;;;;;;;2.40;1.00;;;6.10;96.40;;;;;;5116400;27;20051;-40
2021/01/26 11:09:49;;;;;;;1.75;1.15;;;6.10;96.40;;;;;;5125343;27;20082;-41
2021/01/26 11:12:17;;;;;;;5.60;1.40;;;6.20;96.40;;;;;;5115775;27;20503;-41
2021/01/26 11:14:42;;;;;;;1.95;1.52;;;6.20;96.20;;;;;;5127230;27;20374;-40
2021/01/26 11:17:11;;;;;;;5.88;1.67;;;6.20;96.20;;;;;;5114821;27;20023;-40
2021/01/26 11:19:37;;;;;;;4.10;1.10;;;6.20;96.20;;;;;;5126825;27;20051;-41
2021/01/26 11:22:02;;;;;;;5.57;1.33;;;6.30;96.20;;;;;;5114451;27;20099;-40
2021/01/26 11:24:28;;;;;;;6.40;1.42;;;6.30;96.10;;;;;;5127055;27;20432;-41
2021/01/26 11:26:53;;;;;;;6.03;1.33;;;6.30;95.30;;;;;;5114431;27;20035;-41
2021/01/26 11:29:19;;;;;;;5.00;1.40;;;6.40;95.60;;;;;;5126837;27;20695;-40
2021/01/26 11:31:44;;;;;;;3.28;1.30;;;6.40;95.40;;;;;;5116914;27;20481;-41
2021/01/26 11:34:10;;;;;;;3.50;1.40;;;6.50;95.20;;;;;;5123097;27;20141;-39
2021/01/26 11:36:35;;;;;;;5.28;1.83;;;6.50;95.20;;;;;;5119743;27;20034;-41
2021/01/26 11:39:01;;;;;;;5.88;1.50;;;6.50;95.20;;;;;;5120303;27;20027;-40
2021/01/26 11:41:26;;;;;;;6.43;1.50;;;6.60;95.30;;;;;;5122043;27;20023;-40
2021/01/26 11:43:52;;;;;;;5.25;1.35;;;6.60;95.10;;;;;;5117707;27;20030;-38
2021/01/26 11:46:18;;;;;;;6.88;1.60;;;6.70;95.10;;;;;;5121099;27;20031;-41
2021/01/26 11:48:43;;;;;;;3.90;1.50;;;6.70;94.50;;;;;;5116384;27;20031;-40
2021/01/26 11:51:09;;;;;;;5.15;1.45;;;6.70;94.70;;;;;;5107519;27;20039;-41
2021/01/26 11:53:34;;;;;;;3.67;1.30;;;6.80;94.90;;;;;;5117662;27;20036;-41
2021/01/26 11:56:00;;;;;;;2.13;1.10;;;6.80;95.00;;;;;;5105509;28;20096;-41
2021/01/26 11:58:30;;;;;;;5.78;1.40;;;6.90;95.10;;;;;;5118873;27;20028;-40
2021/01/26 12:00:59;;;;;;;5.93;1.42;;;7.00;95.00;;;;;;5105193;28;20347;-39
2021/01/26 12:03:24;;;;;;;2.85;1.40;;;7.10;94.90;;;;;;5120125;27;20030;-40
2021/01/26 12:05:50;;;;;;;3.88;1.20;;;7.20;94.90;;;;;;5125308;27;20524;-41
2021/01/26 12:08:16;;;;;;;2.22;1.00;;;7.20;94.60;;;;;;5121861;27;20027;-40
2021/01/26 12:10:42;;;;;;;4.55;1.20;;;7.30;94.70;;;;;;5106102;27;20019;-40
2021/01/26 12:13:08;;;;;;;5.25;1.42;;;7.30;94.70;;;;;;5115560;27;20019;-39
2021/01/26 12:15:38;;;;;;;4.20;1.30;;;7.30;94.70;;;;;;5107474;27;20051;-39
2021/01/26 12:18:03;;;;;;;4.50;1.30;;;7.20;93.90;;;;;;5117404;27;20039;-41
2021/01/26 12:20:30;;;;;;;5.50;1.30;;;7.20;94.40;;;;;;5120896;27;20023;-41
2021/01/26 12:22:58;;;;;;;4.45;1.10;;;7.20;94.50;;;;;;5120538;27;20039;-38
2021/01/26 12:25:26;;;;;;;4.28;1.00;;;7.20;93.90;;;;;;5118951;27;20023;-39
2021/01/26 12:27:51;;;;;;;2.50;0.90;;;7.30;94.20;;;;;;5122607;27;20114;-41
2021/01/26 12:30:18;;;;;;;5.30;1.05;;;7.30;94.00;;;;;;5115912;27;20191;-41
2021/01/26 12:32:44;;;;;;;1.65;0.95;;;7.40;94.00;;;;;;5124318;27;20016;-44
2021/01/26 12:35:25;;;;;;;4.97;1.40;;;7.40;94.00;;;;;;5114329;27;20047;-39
2021/01/26 12:37:51;;;;;;;1.92;1.27;;;7.40;94.00;;;;;;5124364;27;20035;-40
2021/01/26 12:40:18;;;;;;;3.50;1.25;;;7.50;93.90;;;;;;5114583;27;20024;-40
2021/01/26 12:42:43;;;;;;;3.45;1.13;;;7.50;93.80;;;;;;5124388;27;20050;-40
2021/01/26 12:45:15;;;;;;;4.05;1.20;;;7.50;93.60;;;;;;5114059;27;20107;-39
2021/01/26 12:47:41;;;;;;;7.28;1.50;;;7.50;93.20;;;;;;5125405;27;20046;-40
2021/01/26 12:50:10;;;;;;;3.35;1.10;;;7.50;93.40;;;;;;5112817;27;20015;-39
2021/01/26 12:52:36;;;;;;;4.68;1.27;;;7.40;93.50;;;;;;5124597;27;20095;-40
2021/01/26 12:55:02;;;;;;;3.58;0.90;;;7.30;93.30;;;;;;5112770;27;20067;-39
2021/01/26 12:57:28;;;;;;;2.28;1.10;;;7.20;93.20;;;;;;5124787;27;20061;-41
2021/01/26 12:59:53;;;;;;;3.15;1.10;;;7.10;93.40;;;;;;5126117;27;20061;-40
2021/01/26 13:02:21;;;;;;;3.50;1.20;;;7.00;93.50;;;;;;5128199;27;20088;-40
2021/01/26 13:04:47;;;;;;;2.53;1.23;;;7.00;93.30;;;;;;5115831;27;20633;-40
2021/01/26 13:07:13;;;;;;;3.35;0.88;;;7.00;93.40;;;;;;5121814;28;20027;-41
2021/01/26 13:09:39;;;;;;;3.35;1.33;;;7.00;93.40;;;;;;5118818;28;20030;-40
2021/01/26 13:12:05;;;;;;;2.83;1.00;;;7.00;93.50;;;;;;5118737;28;20027;-41
2021/01/26 13:14:30;;;;;;;2.40;0.82;;;7.00;93.60;;;;;;5121942;28;20026;-40
2021/01/26 13:16:56;;;;;;;2.20;1.00;;;7.00;93.60;;;;;;5116430;28;20849;-40
2021/01/26 13:19:21;;;;;;;1.65;0.82;;;7.00;93.60;;;;;;5123355;28;20110;-40
2021/01/26 13:21:48;;;;;;;2.15;0.90;;;7.00;93.70;;;;;;5113944;28;20015;-40
2021/01/26 13:24:13;;;;;;;6.28;1.30;;;7.00;93.70;;;;;;5124032;28;20023;-41
2021/01/26 13:26:39;;;;;;;2.78;1.15;;;7.00;93.70;;;;;;5114984;27;20073;-41
2021/01/26 13:29:05;;;;;;;1.70;0.60;;;7.00;93.70;;;;;;5129451;27;20153;-41